sensor_id;sensor_type;location;lat;lon;timestamp;pressure;altitude;pressure_sealevel;temperature;humidity
41040;BME280;48586;50.122;18.972;2023-01-31T00:00:05;97883.47;;;0.33;74.37
41040;BME280;48586;50.122;18.972;2023-01-31T00:02:12;97877.50;;;0.24;74.58
41040;BME280;48586;50.122;18.972;2023-01-31T00:04:16;97877.31;;;0.26;74.73
41040;BME280;48586;50.122;18.972;2023-01-31T00:06:25;97874.53;;;0.27;74.82
41040;BME280;48586;50.122;18.972;2023-01-31T00:08:32;97890.59;;;0.24;75.13
41040;BME280;48586;50.122;18.972;2023-01-31T00:10:37;97877.16;;;0.27;74.85
41040;BME280;48586;50.122;18.972;2023-01-31T00:12:41;97881.56;;;0.27;74.73
41040;BME280;48586;50.122;18.972;2023-01-31T00:14:46;97883.66;;;0.31;74.81
41040;BME280;48586;50.122;18.972;2023-01-31T00:16:51;97886.88;;;0.33;74.85
41040;BME280;48586;50.122;18.972;2023-01-31T00:18:56;97881.66;;;0.33;74.71
41040;BME280;48586;50.122;18.972;2023-01-31T00:21:07;97899.00;;;0.34;74.95
41040;BME280;48586;50.122;18.972;2023-01-31T00:23:17;97892.59;;;0.37;74.79
41040;BME280;48586;50.122;18.972;2023-01-31T00:25:22;97902.72;;;0.40;74.78
41040;BME280;48586;50.122;18.972;2023-01-31T00:27:27;97904.50;;;0.39;74.92
41040;BME280;48586;50.122;18.972;2023-01-31T00:29:32;97899.09;;;0.41;74.82
41040;BME280;48586;50.122;18.972;2023-01-31T00:31:36;97903.31;;;0.42;74.68
41040;BME280;48586;50.122;18.972;2023-01-31T00:33:44;97901.50;;;0.42;74.76
41040;BME280;48586;50.122;18.972;2023-01-31T00:35:49;97910.63;;;0.46;74.71
41040;BME280;48586;50.122;18.972;2023-01-31T00:37:53;97907.47;;;0.51;74.53
41040;BME280;48586;50.122;18.972;2023-01-31T00:40:02;97912.09;;;0.49;74.42
41040;BME280;48586;50.122;18.972;2023-01-31T00:42:08;97920.75;;;0.50;74.34
41040;BME280;48586;50.122;18.972;2023-01-31T00:44:15;97917.59;;;0.54;74.38
41040;BME280;48586;50.122;18.972;2023-01-31T00:46:20;97914.44;;;0.59;74.15
41040;BME280;48586;50.122;18.972;2023-01-31T00:48:25;97923.44;;;0.56;74.13
41040;BME280;48586;50.122;18.972;2023-01-31T00:50:30;97915.88;;;0.61;74.19
41040;BME280;48586;50.122;18.972;2023-01-31T00:52:35;97910.25;;;0.64;73.66
41040;BME280;48586;50.122;18.972;2023-01-31T00:54:39;97908.63;;;0.63;73.48
41040;BME280;48586;50.122;18.972;2023-01-31T00:56:47;97930.59;;;0.62;73.61
41040;BME280;48586;50.122;18.972;2023-01-31T00:58:53;97922.00;;;0.68;73.56
41040;BME280;48586;50.122;18.972;2023-01-31T01:01:05;97929.88;;;0.68;73.40
41040;BME280;48586;50.122;18.972;2023-01-31T01:03:10;97932.13;;;0.71;73.36
41040;BME280;48586;50.122;18.972;2023-01-31T01:05:16;97929.16;;;0.60;73.48
41040;BME280;48586;50.122;18.972;2023-01-31T01:07:24;97927.19;;;0.62;73.40
41040;BME280;48586;50.122;18.972;2023-01-31T01:09:29;97917.97;;;0.66;73.20
41040;BME280;48586;50.122;18.972;2023-01-31T01:11:34;97926.44;;;0.68;73.13
41040;BME280;48586;50.122;18.972;2023-01-31T01:13:41;97934.94;;;0.70;72.88
41040;BME280;48586;50.122;18.972;2023-01-31T01:15:47;97934.94;;;0.70;72.45
41040;BME280;48586;50.122;18.972;2023-01-31T01:17:53;97943.41;;;0.72;72.43
41040;BME280;48586;50.122;18.972;2023-01-31T01:19:58;97942.31;;;0.81;72.37
41040;BME280;48586;50.122;18.972;2023-01-31T01:22:04;97938.53;;;0.84;72.11
41040;BME280;48586;50.122;18.972;2023-01-31T01:24:13;97931.94;;;0.88;71.66
41040;BME280;48586;50.122;18.972;2023-01-31T01:26:22;97944.03;;;0.89;71.37
41040;BME280;48586;50.122;18.972;2023-01-31T01:28:28;97936.16;;;0.89;71.32
41040;BME280;48586;50.122;18.972;2023-01-31T01:30:39;97934.81;;;0.93;71.19
41040;BME280;48586;50.122;18.972;2023-01-31T01:32:44;97933.81;;;0.94;70.86
41040;BME280;48586;50.122;18.972;2023-01-31T01:34:49;97953.78;;;0.95;70.38
41040;BME280;48586;50.122;18.972;2023-01-31T01:36:54;97953.78;;;0.95;70.53
41040;BME280;48586;50.122;18.972;2023-01-31T01:38:59;97947.56;;;0.96;69.91
41040;BME280;48586;50.122;18.972;2023-01-31T01:41:03;97964.34;;;1.02;70.14
41040;BME280;48586;50.122;18.972;2023-01-31T01:43:10;97959.56;;;1.05;69.02
41040;BME280;48586;50.122;18.972;2023-01-31T01:45:15;97961.06;;;1.14;68.67
41040;BME280;48586;50.122;18.972;2023-01-31T01:47:37;97960.88;;;1.16;68.32
41040;BME280;48586;50.122;18.972;2023-01-31T01:49:54;97974.09;;;1.22;67.57
41040;BME280;48586;50.122;18.972;2023-01-31T01:52:06;97976.50;;;1.24;67.41
41040;BME280;48586;50.122;18.972;2023-01-31T01:54:20;97968.88;;;1.29;67.64
41040;BME280;48586;50.122;18.972;2023-01-31T01:56:36;97968.34;;;1.34;66.99
41040;BME280;48586;50.122;18.972;2023-01-31T01:58:51;97971.75;;;1.34;66.71
41040;BME280;48586;50.122;18.972;2023-01-31T02:01:03;97978.09;;;1.40;66.75
41040;BME280;48586;50.122;18.972;2023-01-31T02:03:13;97980.28;;;1.36;66.52
41040;BME280;48586;50.122;18.972;2023-01-31T02:05:21;97989.31;;;1.34;66.34
41040;BME280;48586;50.122;18.972;2023-01-31T02:07:30;97997.47;;;1.39;66.66
41040;BME280;48586;50.122;18.972;2023-01-31T02:09:41;98002.16;;;1.43;66.93
41040;BME280;48586;50.122;18.972;2023-01-31T02:11:50;98004.78;;;1.43;66.68
41040;BME280;48586;50.122;18.972;2023-01-31T02:14:00;97996.22;;;1.35;66.40
41040;BME280;48586;50.122;18.972;2023-01-31T02:16:09;98001.69;;;1.18;66.33
41040;BME280;48586;50.122;18.972;2023-01-31T02:18:20;98005.19;;;1.26;67.10
41040;BME280;48586;50.122;18.972;2023-01-31T02:20:51;98003.09;;;1.21;66.77
41040;BME280;48586;50.122;18.972;2023-01-31T02:26:38;98017.56;;;1.32;67.39
41040;BME280;48586;50.122;18.972;2023-01-31T02:29:18;98001.06;;;1.38;67.77
41040;BME280;48586;50.122;18.972;2023-01-31T02:32:12;98011.47;;;1.46;67.55
41040;BME280;48586;50.122;18.972;2023-01-31T02:34:43;98013.97;;;1.54;67.85
41040;BME280;48586;50.122;18.972;2023-01-31T02:37:11;98022.75;;;1.61;68.14
41040;BME280;48586;50.122;18.972;2023-01-31T02:39:32;98028.25;;;1.66;67.74
41040;BME280;48586;50.122;18.972;2023-01-31T02:41:52;98023.59;;;1.68;67.85
41040;BME280;48586;50.122;18.972;2023-01-31T02:44:11;98020.16;;;1.68;67.64
41040;BME280;48586;50.122;18.972;2023-01-31T02:46:45;98024.00;;;1.65;67.33
41040;BME280;48586;50.122;18.972;2023-01-31T02:49:07;98034.50;;;1.65;67.99
41040;BME280;48586;50.122;18.972;2023-01-31T02:51:43;98028.03;;;1.68;67.90
41040;BME280;48586;50.122;18.972;2023-01-31T02:54:18;98020.56;;;1.65;67.29
41040;BME280;48586;50.122;18.972;2023-01-31T02:56:49;98021.66;;;1.56;67.70
41040;BME280;48586;50.122;18.972;2023-01-31T02:58:57;98035.09;;;1.46;67.78
41040;BME280;48586;50.122;18.972;2023-01-31T03:01:09;98042.50;;;1.42;68.17
41040;BME280;48586;50.122;18.972;2023-01-31T03:03:24;98059.06;;;1.43;68.33
41040;BME280;48586;50.122;18.972;2023-01-31T03:05:34;98071.28;;;1.51;68.80
41040;BME280;48586;50.122;18.972;2023-01-31T03:07:41;98060.66;;;1.59;68.61
41040;BME280;48586;50.122;18.972;2023-01-31T03:10:01;98053.50;;;1.67;68.15
41040;BME280;48586;50.122;18.972;2023-01-31T03:12:31;98054.38;;;1.75;67.72
41040;BME280;48586;50.122;18.972;2023-01-31T03:15:01;98055.00;;;1.77;67.57
41040;BME280;48586;50.122;18.972;2023-01-31T03:17:27;98064.13;;;1.81;67.04
41040;BME280;48586;50.122;18.972;2023-01-31T03:19:45;98068.81;;;1.85;67.20
41040;BME280;48586;50.122;18.972;2023-01-31T03:22:02;98069.91;;;1.91;67.28
41040;BME280;48586;50.122;18.972;2023-01-31T03:24:14;98071.97;;;1.95;66.48
41040;BME280;48586;50.122;18.972;2023-01-31T03:26:20;98066.53;;;1.97;65.72
41040;BME280;48586;50.122;18.972;2023-01-31T03:28:30;98081.09;;;2.00;65.58
41040;BME280;48586;50.122;18.972;2023-01-31T03:30:42;98091.09;;;1.89;65.04
41040;BME280;48586;50.122;18.972;2023-01-31T03:32:57;98128.41;;;1.85;65.80
41040;BME280;48586;50.122;18.972;2023-01-31T03:35:07;98146.84;;;1.70;66.51
41040;BME280;48586;50.122;18.972;2023-01-31T03:37:24;98148.41;;;1.50;66.37
41040;BME280;48586;50.122;18.972;2023-01-31T03:39:51;98135.66;;;1.32;66.70
41040;BME280;48586;50.122;18.972;2023-01-31T03:42:03;98140.88;;;1.17;67.55
41040;BME280;48586;50.122;18.972;2023-01-31T03:44:18;98146.75;;;1.04;67.96
41040;BME280;48586;50.122;18.972;2023-01-31T03:46:38;98147.66;;;0.82;68.49
41040;BME280;48586;50.122;18.972;2023-01-31T03:48:53;98156.94;;;0.69;68.98
41040;BME280;48586;50.122;18.972;2023-01-31T03:51:06;98148.50;;;0.59;69.66
41040;BME280;48586;50.122;18.972;2023-01-31T03:53:26;98160.06;;;0.50;70.00
41040;BME280;48586;50.122;18.972;2023-01-31T03:55:41;98155.53;;;0.44;70.26
41040;BME280;48586;50.122;18.972;2023-01-31T03:57:55;98137.41;;;0.34;70.52
41040;BME280;48586;50.122;18.972;2023-01-31T04:00:08;98145.50;;;0.25;70.98
41040;BME280;48586;50.122;18.972;2023-01-31T04:02:33;98149.78;;;0.17;71.61
41040;BME280;48586;50.122;18.972;2023-01-31T04:04:45;98166.69;;;0.15;72.09
41040;BME280;48586;50.122;18.972;2023-01-31T04:06:54;98180.59;;;0.15;72.16
41040;BME280;48586;50.122;18.972;2023-01-31T04:09:02;98190.78;;;0.10;72.80
41040;BME280;48586;50.122;18.972;2023-01-31T04:11:09;98188.16;;;0.10;73.14
41040;BME280;48586;50.122;18.972;2023-01-31T04:13:17;98178.06;;;-0.01;73.99
41040;BME280;48586;50.122;18.972;2023-01-31T04:15:23;98182.81;;;-0.05;74.39
41040;BME280;48586;50.122;18.972;2023-01-31T04:17:27;98187.13;;;-0.12;74.61
41040;BME280;48586;50.122;18.972;2023-01-31T04:19:31;98193.84;;;-0.17;74.67
41040;BME280;48586;50.122;18.972;2023-01-31T04:21:35;98180.78;;;-0.17;74.57
41040;BME280;48586;50.122;18.972;2023-01-31T04:23:39;98184.91;;;-0.23;74.22
41040;BME280;48586;50.122;18.972;2023-01-31T04:25:46;98179.47;;;-0.21;73.97
41040;BME280;48586;50.122;18.972;2023-01-31T04:27:51;98183.09;;;-0.22;73.92
41040;BME280;48586;50.122;18.972;2023-01-31T04:29:55;98180.78;;;-0.17;73.87
41040;BME280;48586;50.122;18.972;2023-01-31T04:31:59;98188.28;;;-0.14;73.67
41040;BME280;48586;50.122;18.972;2023-01-31T04:34:03;98182.34;;;-0.08;73.48
41040;BME280;48586;50.122;18.972;2023-01-31T04:36:08;98184.31;;;-0.02;72.96
41040;BME280;48586;50.122;18.972;2023-01-31T04:38:13;98182.81;;;-0.05;72.42
41040;BME280;48586;50.122;18.972;2023-01-31T04:40:18;98188.22;;;0.02;72.50
41040;BME280;48586;50.122;18.972;2023-01-31T04:42:24;98191.13;;;0.07;72.45
41040;BME280;48586;50.122;18.972;2023-01-31T04:44:28;98188.78;;;0.12;72.23
41040;BME280;48586;50.122;18.972;2023-01-31T04:46:33;98197.13;;;0.16;71.84
41040;BME280;48586;50.122;18.972;2023-01-31T04:48:37;98207.41;;;0.17;71.44
41040;BME280;48586;50.122;18.972;2023-01-31T04:50:42;98199.88;;;0.23;71.46
41040;BME280;48586;50.122;18.972;2023-01-31T04:52:48;98209.53;;;0.22;71.13
41040;BME280;48586;50.122;18.972;2023-01-31T04:54:53;98205.28;;;0.21;70.12
41040;BME280;48586;50.122;18.972;2023-01-31T04:56:57;98204.59;;;0.27;70.50
41040;BME280;48586;50.122;18.972;2023-01-31T04:59:05;98211.28;;;0.30;70.25
41040;BME280;48586;50.122;18.972;2023-01-31T05:01:09;98219.00;;;0.31;70.07
41040;BME280;48586;50.122;18.972;2023-01-31T05:03:13;98223.53;;;0.37;70.08
41040;BME280;48586;50.122;18.972;2023-01-31T05:05:18;98227.63;;;0.40;69.29
41040;BME280;48586;50.122;18.972;2023-01-31T05:07:23;98234.75;;;0.46;69.39
41040;BME280;48586;50.122;18.972;2023-01-31T05:09:27;98239.81;;;0.47;68.97
41040;BME280;48586;50.122;18.972;2023-01-31T05:11:32;98236.06;;;0.50;68.61
41040;BME280;48586;50.122;18.972;2023-01-31T05:13:36;98241.75;;;0.54;68.59
41040;BME280;48586;50.122;18.972;2023-01-31T05:15:47;98249.63;;;0.54;68.20
41040;BME280;48586;50.122;18.972;2023-01-31T05:17:53;98249.25;;;0.57;68.06
41040;BME280;48586;50.122;18.972;2023-01-31T05:20:03;98255.97;;;0.59;67.73
41040;BME280;48586;50.122;18.972;2023-01-31T05:22:08;98259.06;;;0.63;67.83
41040;BME280;48586;50.122;18.972;2023-01-31T05:24:13;98264.66;;;0.60;66.91
41040;BME280;48586;50.122;18.972;2023-01-31T05:26:17;98277.75;;;0.60;67.08
41040;BME280;48586;50.122;18.972;2023-01-31T05:28:22;98273.50;;;0.59;67.10
41040;BME280;48586;50.122;18.972;2023-01-31T05:30:27;98280.38;;;0.60;66.43
41040;BME280;48586;50.122;18.972;2023-01-31T05:32:35;98287.25;;;0.61;66.68
41040;BME280;48586;50.122;18.972;2023-01-31T05:34:39;98282.53;;;0.56;66.34
41040;BME280;48586;50.122;18.972;2023-01-31T05:36:44;98289.56;;;0.56;66.86
41040;BME280;48586;50.122;18.972;2023-01-31T05:38:48;98285.50;;;0.53;67.45
41040;BME280;48586;50.122;18.972;2023-01-31T05:40:52;98278.38;;;0.39;67.85
41040;BME280;48586;50.122;18.972;2023-01-31T05:42:58;98293.28;;;0.38;68.22
41040;BME280;48586;50.122;18.972;2023-01-31T05:45:05;98292.97;;;0.33;68.73
41040;BME280;48586;50.122;18.972;2023-01-31T05:47:10;98296.59;;;0.32;69.00
41040;BME280;48586;50.122;18.972;2023-01-31T05:49:17;98291.19;;;0.26;69.34
41040;BME280;48586;50.122;18.972;2023-01-31T05:51:23;98298.75;;;0.20;69.66
41040;BME280;48586;50.122;18.972;2023-01-31T05:53:27;98305.81;;;0.20;69.69
41040;BME280;48586;50.122;18.972;2023-01-31T05:55:32;98296.16;;;0.20;69.67
41040;BME280;48586;50.122;18.972;2023-01-31T05:57:36;98307.81;;;0.18;69.73
41040;BME280;48586;50.122;18.972;2023-01-31T05:59:40;98305.84;;;0.12;70.07
41040;BME280;48586;50.122;18.972;2023-01-31T06:01:45;98311.25;;;0.10;69.73
41040;BME280;48586;50.122;18.972;2023-01-31T06:03:49;98314.50;;;0.12;69.92
41040;BME280;48586;50.122;18.972;2023-01-31T06:05:57;98319.44;;;0.07;69.90
41040;BME280;48586;50.122;18.972;2023-01-31T06:08:02;98323.69;;;0.08;70.09
41040;BME280;48586;50.122;18.972;2023-01-31T06:10:09;98334.34;;;0.07;70.05
41040;BME280;48586;50.122;18.972;2023-01-31T06:12:15;98332.22;;;0.10;70.14
41040;BME280;48586;50.122;18.972;2023-01-31T06:14:20;98331.19;;;0.19;70.24
41040;BME280;48586;50.122;18.972;2023-01-31T06:16:24;98338.72;;;0.23;69.81
41040;BME280;48586;50.122;18.972;2023-01-31T06:18:29;98333.47;;;0.23;69.62
41040;BME280;48586;50.122;18.972;2023-01-31T06:20:34;98344.91;;;0.21;69.77
41040;BME280;48586;50.122;18.972;2023-01-31T06:22:41;98342.31;;;0.21;69.67
41040;BME280;48586;50.122;18.972;2023-01-31T06:24:45;98351.16;;;0.20;69.96
41040;BME280;48586;50.122;18.972;2023-01-31T06:26:51;98346.59;;;0.23;69.98
41040;BME280;48586;50.122;18.972;2023-01-31T06:28:55;98355.56;;;0.28;70.09
41040;BME280;48586;50.122;18.972;2023-01-31T06:31:05;98361.09;;;0.33;69.86
41040;BME280;48586;50.122;18.972;2023-01-31T06:33:11;98379.91;;;0.37;69.75
41040;BME280;48586;50.122;18.972;2023-01-31T06:35:15;98377.13;;;0.38;69.46
41040;BME280;48586;50.122;18.972;2023-01-31T06:37:19;98372.06;;;0.37;69.37
41040;BME280;48586;50.122;18.972;2023-01-31T06:39:27;98373.38;;;0.33;69.23
41040;BME280;48586;50.122;18.972;2023-01-31T06:41:31;98375.50;;;0.37;69.44
41040;BME280;48586;50.122;18.972;2023-01-31T06:43:36;98389.41;;;0.38;68.67
41040;BME280;48586;50.122;18.972;2023-01-31T06:45:41;98382.72;;;0.35;68.22
41040;BME280;48586;50.122;18.972;2023-01-31T06:47:46;98395.34;;;0.32;68.01
41040;BME280;48586;50.122;18.972;2023-01-31T06:49:50;98391.53;;;0.34;68.05
41040;BME280;48586;50.122;18.972;2023-01-31T06:51:55;98398.06;;;0.38;67.08
41040;BME280;48586;50.122;18.972;2023-01-31T06:53:59;98395.63;;;0.37;66.67
41040;BME280;48586;50.122;18.972;2023-01-31T06:56:07;98406.59;;;0.40;66.54
41040;BME280;48586;50.122;18.972;2023-01-31T06:58:13;98401.19;;;0.42;66.59
41040;BME280;48586;50.122;18.972;2023-01-31T07:00:18;98408.22;;;0.41;65.96
41040;BME280;48586;50.122;18.972;2023-01-31T07:02:24;98418.72;;;0.41;66.38
41040;BME280;48586;50.122;18.972;2023-01-31T07:04:30;98420.53;;;0.41;65.31
41040;BME280;48586;50.122;18.972;2023-01-31T07:06:35;98423.25;;;0.47;65.59
41040;BME280;48586;50.122;18.972;2023-01-31T07:08:40;98422.31;;;0.49;65.66
41040;BME280;48586;50.122;18.972;2023-01-31T07:10:46;98423.75;;;0.51;65.96
41040;BME280;48586;50.122;18.972;2023-01-31T07:12:53;98415.59;;;0.46;65.60
41040;BME280;48586;50.122;18.972;2023-01-31T07:14:57;98421.97;;;0.43;65.50
41040;BME280;48586;50.122;18.972;2023-01-31T07:17:02;98425.44;;;0.44;65.63
41040;BME280;48586;50.122;18.972;2023-01-31T07:19:08;98426.06;;;0.46;65.74
41040;BME280;48586;50.122;18.972;2023-01-31T07:21:13;98426.06;;;0.46;65.38
41040;BME280;48586;50.122;18.972;2023-01-31T07:23:19;98427.88;;;0.45;65.61
41040;BME280;48586;50.122;18.972;2023-01-31T07:25:23;98419.19;;;0.45;65.19
41040;BME280;48586;50.122;18.972;2023-01-31T07:27:31;98426.69;;;0.48;65.26
41040;BME280;48586;50.122;18.972;2023-01-31T07:29:39;98428.34;;;0.49;65.37
41040;BME280;48586;50.122;18.972;2023-01-31T07:31:44;98426.38;;;0.51;65.57
41040;BME280;48586;50.122;18.972;2023-01-31T07:33:50;98433.25;;;0.52;65.05
41040;BME280;48586;50.122;18.972;2023-01-31T07:35:55;98437.84;;;0.50;64.33
41040;BME280;48586;50.122;18.972;2023-01-31T07:38:01;98446.00;;;0.55;64.82
41040;BME280;48586;50.122;18.972;2023-01-31T07:40:07;98445.50;;;0.60;64.94
41040;BME280;48586;50.122;18.972;2023-01-31T07:42:14;98450.59;;;0.61;64.94
41040;BME280;48586;50.122;18.972;2023-01-31T07:44:19;98450.59;;;0.61;64.05
41040;BME280;48586;50.122;18.972;2023-01-31T07:46:27;98451.88;;;0.65;64.09
41040;BME280;48586;50.122;18.972;2023-01-31T07:48:32;98460.09;;;0.62;63.79
41040;BME280;48586;50.122;18.972;2023-01-31T07:50:37;98453.53;;;0.66;63.82
41040;BME280;48586;50.122;18.972;2023-01-31T07:52:42;98463.50;;;0.71;63.89
41040;BME280;48586;50.122;18.972;2023-01-31T07:54:49;98459.38;;;0.77;64.01
41040;BME280;48586;50.122;18.972;2023-01-31T07:56:53;98462.28;;;0.82;64.26
41040;BME280;48586;50.122;18.972;2023-01-31T07:58:58;98465.44;;;0.77;63.94
41040;BME280;48586;50.122;18.972;2023-01-31T08:01:04;98463.00;;;0.76;63.38
41040;BME280;48586;50.122;18.972;2023-01-31T08:03:40;98461.81;;;0.78;63.38
41040;BME280;48586;50.122;18.972;2023-01-31T08:05:44;98469.22;;;0.75;63.38
41040;BME280;48586;50.122;18.972;2023-01-31T08:07:52;98471.50;;;0.78;63.22
41040;BME280;48586;50.122;18.972;2023-01-31T08:10:10;98468.22;;;0.76;63.09
41040;BME280;48586;50.122;18.972;2023-01-31T08:12:18;98469.84;;;0.77;62.76
41040;BME280;48586;50.122;18.972;2023-01-31T08:14:23;98471.16;;;0.81;62.86
41040;BME280;48586;50.122;18.972;2023-01-31T08:16:29;98481.31;;;0.84;62.40
41040;BME280;48586;50.122;18.972;2023-01-31T08:18:34;98489.19;;;0.84;62.06
41040;BME280;48586;50.122;18.972;2023-01-31T08:20:43;98481.13;;;0.85;62.05
41040;BME280;48586;50.122;18.972;2023-01-31T08:22:48;98494.03;;;0.95;61.87
41040;BME280;48586;50.122;18.972;2023-01-31T08:24:52;98502.38;;;0.98;61.96
41040;BME280;48586;50.122;18.972;2023-01-31T08:26:59;98503.38;;;0.97;61.37
41040;BME280;48586;50.122;18.972;2023-01-31T08:29:03;98498.94;;;0.98;61.57
41040;BME280;48586;50.122;18.972;2023-01-31T08:31:12;98500.56;;;0.99;61.48
41040;BME280;48586;50.122;18.972;2023-01-31T08:33:21;98512.72;;;1.00;61.09
41040;BME280;48586;50.122;18.972;2023-01-31T08:35:26;98511.72;;;1.01;61.34
41040;BME280;48586;50.122;18.972;2023-01-31T08:37:35;98512.84;;;1.07;61.40
41040;BME280;48586;50.122;18.972;2023-01-31T08:39:41;98523.00;;;1.10;61.07
41040;BME280;48586;50.122;18.972;2023-01-31T08:41:46;98514.78;;;1.13;61.61
41040;BME280;48586;50.122;18.972;2023-01-31T08:43:52;98518.38;;;1.12;61.79
41040;BME280;48586;50.122;18.972;2023-01-31T08:46:00;98527.44;;;1.09;61.00
41040;BME280;48586;50.122;18.972;2023-01-31T08:48:04;98529.41;;;1.07;61.19
41040;BME280;48586;50.122;18.972;2023-01-31T08:50:11;98531.22;;;1.07;61.66
41040;BME280;48586;50.122;18.972;2023-01-31T08:52:16;98541.19;;;1.11;63.05
41040;BME280;48586;50.122;18.972;2023-01-31T08:54:24;98539.25;;;1.05;63.04
41040;BME280;48586;50.122;18.972;2023-01-31T08:56:29;98540.72;;;1.08;63.48
41040;BME280;48586;50.122;18.972;2023-01-31T08:58:37;98540.22;;;1.04;63.33
41040;BME280;48586;50.122;18.972;2023-01-31T09:00:44;98539.28;;;0.97;63.59
41040;BME280;48586;50.122;18.972;2023-01-31T09:02:51;98538.47;;;0.96;64.04
41040;BME280;48586;50.122;18.972;2023-01-31T09:04:58;98540.28;;;0.96;63.29
41040;BME280;48586;50.122;18.972;2023-01-31T09:07:02;98544.88;;;0.94;63.34
41040;BME280;48586;50.122;18.972;2023-01-31T09:09:08;98545.84;;;0.93;63.24
41040;BME280;48586;50.122;18.972;2023-01-31T09:11:16;98541.25;;;0.95;63.41
41040;BME280;48586;50.122;18.972;2023-01-31T09:13:23;98550.25;;;1.01;63.73
41040;BME280;48586;50.122;18.972;2023-01-31T09:15:27;98545.00;;;1.01;63.38
41040;BME280;48586;50.122;18.972;2023-01-31T09:17:33;98548.59;;;1.00;62.42
41040;BME280;48586;50.122;18.972;2023-01-31T09:19:39;98553.34;;;1.04;62.79
41040;BME280;48586;50.122;18.972;2023-01-31T09:21:44;98559.75;;;1.02;61.97
41040;BME280;48586;50.122;18.972;2023-01-31T09:23:54;98548.28;;;1.03;61.20
41040;BME280;48586;50.122;18.972;2023-01-31T09:26:03;98552.84;;;1.09;61.27
41040;BME280;48586;50.122;18.972;2023-01-31T09:28:11;98557.75;;;1.12;60.98
41040;BME280;48586;50.122;18.972;2023-01-31T09:30:18;98558.72;;;1.19;61.05
41040;BME280;48586;50.122;18.972;2023-01-31T09:32:23;98562.97;;;1.20;60.44
41040;BME280;48586;50.122;18.972;2023-01-31T09:34:28;98563.47;;;1.15;59.18
41040;BME280;48586;50.122;18.972;2023-01-31T09:36:34;98567.41;;;1.19;59.04
41040;BME280;48586;50.122;18.972;2023-01-31T09:38:39;98568.03;;;1.21;58.23
41040;BME280;48586;50.122;18.972;2023-01-31T09:40:45;98568.53;;;1.17;57.22
41040;BME280;48586;50.122;18.972;2023-01-31T09:42:56;98566.41;;;1.20;56.85
41040;BME280;48586;50.122;18.972;2023-01-31T09:45:14;98564.84;;;1.34;57.27
41040;BME280;48586;50.122;18.972;2023-01-31T09:47:30;98572.56;;;1.36;55.90
41040;BME280;48586;50.122;18.972;2023-01-31T09:49:45;98570.25;;;1.41;56.35
41040;BME280;48586;50.122;18.972;2023-01-31T09:51:57;98565.84;;;1.33;55.58
41040;BME280;48586;50.122;18.972;2023-01-31T09:54:09;98573.13;;;1.23;56.14
41040;BME280;48586;50.122;18.972;2023-01-31T09:56:33;98578.91;;;1.10;56.50
41040;BME280;48586;50.122;18.972;2023-01-31T09:58:55;98577.94;;;1.03;57.85
41040;BME280;48586;50.122;18.972;2023-01-31T10:01:20;98581.75;;;1.01;58.17
41040;BME280;48586;50.122;18.972;2023-01-31T10:03:46;98584.19;;;1.02;58.24
41040;BME280;48586;50.122;18.972;2023-01-31T10:06:09;98578.91;;;1.10;59.13
41040;BME280;48586;50.122;18.972;2023-01-31T10:08:39;98574.63;;;1.17;58.77
41040;BME280;48586;50.122;18.972;2023-01-31T10:10:55;98575.91;;;1.21;57.60
41040;BME280;48586;50.122;18.972;2023-01-31T10:13:11;98568.00;;;1.30;57.68
41040;BME280;48586;50.122;18.972;2023-01-31T10:15:30;98565.53;;;1.36;57.84
41040;BME280;48586;50.122;18.972;2023-01-31T10:17:53;98573.19;;;1.46;58.20
41040;BME280;48586;50.122;18.972;2023-01-31T10:20:08;98559.91;;;1.47;57.24
41040;BME280;48586;50.122;18.972;2023-01-31T10:22:31;98576.97;;;1.43;57.38
41040;BME280;48586;50.122;18.972;2023-01-31T10:24:46;98571.72;;;1.43;57.63
41040;BME280;48586;50.122;18.972;2023-01-31T10:27:03;98569.56;;;1.47;57.82
41040;BME280;48586;50.122;18.972;2023-01-31T10:29:20;98561.56;;;1.40;57.32
41040;BME280;48586;50.122;18.972;2023-01-31T10:31:39;98562.19;;;1.42;57.25
41040;BME280;48586;50.122;18.972;2023-01-31T10:33:54;98559.13;;;1.39;56.33
41040;BME280;48586;50.122;18.972;2023-01-31T10:36:10;98566.81;;;1.40;55.68
41040;BME280;48586;50.122;18.972;2023-01-31T10:38:33;98564.72;;;1.36;55.99
41040;BME280;48586;50.122;18.972;2023-01-31T10:40:49;98561.69;;;1.47;55.95
41040;BME280;48586;50.122;18.972;2023-01-31T10:43:08;98554.47;;;1.49;55.96
41040;BME280;48586;50.122;18.972;2023-01-31T10:45:22;98564.63;;;1.52;55.93
41040;BME280;48586;50.122;18.972;2023-01-31T10:47:33;98557.16;;;1.64;56.16
41040;BME280;48586;50.122;18.972;2023-01-31T10:49:45;98555.97;;;1.75;56.65
41040;BME280;48586;50.122;18.972;2023-01-31T10:52:06;98562.13;;;1.82;55.94
41040;BME280;48586;50.122;18.972;2023-01-31T10:54:35;98554.72;;;1.85;56.76
41040;BME280;48586;50.122;18.972;2023-01-31T10:56:53;98551.63;;;1.82;56.66
41040;BME280;48586;50.122;18.972;2023-01-31T10:59:03;98552.56;;;1.89;56.80
41040;BME280;48586;50.122;18.972;2023-01-31T11:01:11;98558.34;;;1.84;56.84
41040;BME280;48586;50.122;18.972;2023-01-31T11:03:16;98559.81;;;1.87;56.77
41040;BME280;48586;50.122;18.972;2023-01-31T11:05:27;98548.50;;;1.86;56.55
41040;BME280;48586;50.122;18.972;2023-01-31T11:07:33;98544.81;;;1.95;56.87
41040;BME280;48586;50.122;18.972;2023-01-31T11:09:42;98545.91;;;2.01;55.96
41040;BME280;48586;50.122;18.972;2023-01-31T11:11:55;98546.38;;;2.05;56.02
41040;BME280;48586;50.122;18.972;2023-01-31T11:14:04;98549.91;;;2.12;55.50
41040;BME280;48586;50.122;18.972;2023-01-31T11:16:12;98542.34;;;2.17;55.08
41040;BME280;48586;50.122;18.972;2023-01-31T11:18:27;98553.69;;;2.17;54.81
41040;BME280;48586;50.122;18.972;2023-01-31T11:20:45;98546.41;;;2.19;54.52
41040;BME280;48586;50.122;18.972;2023-01-31T11:22:53;98550.31;;;2.23;54.59
41040;BME280;48586;50.122;18.972;2023-01-31T11:25:03;98544.25;;;2.23;54.45
41040;BME280;48586;50.122;18.972;2023-01-31T11:27:19;98542.97;;;2.19;54.60
41040;BME280;48586;50.122;18.972;2023-01-31T11:29:32;98549.38;;;2.16;56.51